Yuho Maru No.3 — JD2491 — position and weather

sailwx.info

Track history (hours):
 
Tides and Currents Weather Stations Pressure Air Temp Water Temp Dewpoint Dewpoint Depression Visibility Wind Speed Wind Dir Waves Ship Positions

Yuho Maru No.3

Last reported at 2017-Jan-07 05:03 UTC. Time now 2017-Jan-17 02:56 UTC.
Position N 34°37' E 135°01'.
Warning: this ship's position is 9 days out of date.

Length 65 m; draft 4.2 m.

Type: Tanker. MMSI: 431000336.

Date/timePositionNaut miles runAvg speedWind from/ knotsBaromVisibWave heightAir tempDewpointWater temp
2017-Jan-07 05:03N 34°37' E 135°01'611.4
2017-Jan-07 04:33N 34°36' E 135°08'1111.0
2017-Jan-07 03:33N 34°39' E 135°21'3 3.2
2017-Jan-07 02:32N 34°39' E 135°25'0 0.0
2017-Jan-07 01:33N 34°39' E 135°25'0 0.0
2017-Jan-07 00:33N 34°39' E 135°25'3 2.6
2017-Jan-06 23:33N 34°39' E 135°22'0 0.0
2017-Jan-06 22:33N 34°39' E 135°22'0 0.0
2017-Jan-06 21:33N 34°39' E 135°22'0 0.0
2017-Jan-06 20:33N 34°39' E 135°22'0 0.0
2017-Jan-06 19:33N 34°39' E 135°22'0 0.0
2017-Jan-06 18:33N 34°39' E 135°22'0 0.0
2017-Jan-06 17:33N 34°39' E 135°22'0 0.0
2017-Jan-06 16:33N 34°39' E 135°22'0 0.0
2017-Jan-06 15:34N 34°39' E 135°22'0 0.0
2017-Jan-06 14:33N 34°39' E 135°22'0 0.0
2017-Jan-06 13:33N 34°39' E 135°22'0 0.0
2017-Jan-06 12:33N 34°39' E 135°22'4 3.6
2017-Jan-06 11:33N 34°36' E 135°20'5 4.7
2017-Jan-06 10:33N 34°34' E 135°25'0 0.0
2017-Jan-06 09:33N 34°34' E 135°25'0 0.0
2017-Jan-06 08:33N 34°34' E 135°25'0 0.0
2017-Jan-06 07:33N 34°34' E 135°25'0 0.0
2017-Jan-06 06:33N 34°34' E 135°25'8 8.4
2017-Jan-06 05:33N 34°36' E 135°15'1111.1
2017-Jan-06 04:33N 34°37' E 135°02'  
Track history (hours):
 
Tides and Currents Weather Stations Pressure Air Temp Water Temp Dewpoint Dewpoint Depression Visibility Wind Speed Wind Dir Waves Ship Positions

Yuho Maru No.3

Last reported at 2017-Jan-07 05:03 UTC. Time now 2017-Jan-17 02:56 UTC.
Position N 34°37' E 135°01'.
Warning: this ship's position is 9 days out of date.

Length 65 m; draft 4.2 m.

Type: Tanker. MMSI: 431000336.

Date/timePositionNaut miles runAvg speedWind from/ knotsBaromVisibWave heightAir tempDewpointWater temp
2017-Jan-07 05:03N 34°37' E 135°01'611.4
2017-Jan-07 04:33N 34°36' E 135°08'1111.0
2017-Jan-07 03:33N 34°39' E 135°21'3 3.2
2017-Jan-07 02:32N 34°39' E 135°25'0 0.0
2017-Jan-07 01:33N 34°39' E 135°25'0 0.0
2017-Jan-07 00:33N 34°39' E 135°25'3 2.6
2017-Jan-06 23:33N 34°39' E 135°22'0 0.0
2017-Jan-06 22:33N 34°39' E 135°22'0 0.0
2017-Jan-06 21:33N 34°39' E 135°22'0 0.0
2017-Jan-06 20:33N 34°39' E 135°22'0 0.0
2017-Jan-06 19:33N 34°39' E 135°22'0 0.0
2017-Jan-06 18:33N 34°39' E 135°22'0 0.0
2017-Jan-06 17:33N 34°39' E 135°22'0 0.0
2017-Jan-06 16:33N 34°39' E 135°22'0 0.0
2017-Jan-06 15:34N 34°39' E 135°22'0 0.0
2017-Jan-06 14:33N 34°39' E 135°22'0 0.0
2017-Jan-06 13:33N 34°39' E 135°22'0 0.0
2017-Jan-06 12:33N 34°39' E 135°22'4 3.6
2017-Jan-06 11:33N 34°36' E 135°20'5 4.7
2017-Jan-06 10:33N 34°34' E 135°25'0 0.0
2017-Jan-06 09:33N 34°34' E 135°25'0 0.0
2017-Jan-06 08:33N 34°34' E 135°25'0 0.0
2017-Jan-06 07:33N 34°34' E 135°25'0 0.0
2017-Jan-06 06:33N 34°34' E 135°25'8 8.4
2017-Jan-06 05:33N 34°36' E 135°15'1111.1
2017-Jan-06 04:33N 34°37' E 135°02'  

Dump ship's entire track history